sensor_id;sensor_type;location;lat;lon;timestamp;pressure;altitude;pressure_sealevel;temperature;humidity
72210;BME280;60113;48.762;12.302;2023-09-07T00:02:01;97675.63;;;10.99;73.22
72210;BME280;60113;48.762;12.302;2023-09-07T00:04:27;97673.41;;;10.93;73.16
72210;BME280;60113;48.762;12.302;2023-09-07T00:06:55;97675.63;;;10.86;74.23
72210;BME280;60113;48.762;12.302;2023-09-07T00:09:20;97676.06;;;10.80;75.60
72210;BME280;60113;48.762;12.302;2023-09-07T00:11:47;97675.63;;;10.73;78.10
72210;BME280;60113;48.762;12.302;2023-09-07T00:14:13;97675.03;;;10.69;77.13
72210;BME280;60113;48.762;12.302;2023-09-07T00:16:38;97675.25;;;10.66;74.38
72210;BME280;60113;48.762;12.302;2023-09-07T00:19:15;97676.31;;;10.63;73.24
72210;BME280;60113;48.762;12.302;2023-09-07T00:21:41;97668.53;;;10.62;74.64
72210;BME280;60113;48.762;12.302;2023-09-07T00:24:15;97666.13;;;10.59;76.01
72210;BME280;60113;48.762;12.302;2023-09-07T00:26:41;97672.31;;;10.58;71.72
72210;BME280;60113;48.762;12.302;2023-09-07T00:29:24;97675.69;;;10.60;82.22
72210;BME280;60113;48.762;12.302;2023-09-07T00:31:49;97667.56;;;10.50;73.45
72210;BME280;60113;48.762;12.302;2023-09-07T00:34:15;97669.59;;;10.46;72.03
72210;BME280;60113;48.762;12.302;2023-09-07T00:36:40;97672.28;;;10.45;69.68
72210;BME280;60113;48.762;12.302;2023-09-07T00:39:08;97667.25;;;10.42;71.31
72210;BME280;60113;48.762;12.302;2023-09-07T00:41:51;97669.25;;;10.38;72.05
72210;BME280;60113;48.762;12.302;2023-09-07T00:44:19;97665.97;;;10.34;70.48
72210;BME280;60113;48.762;12.302;2023-09-07T00:47:04;97665.38;;;10.31;72.45
72210;BME280;60113;48.762;12.302;2023-09-07T00:49:30;97662.19;;;10.25;74.90
72210;BME280;60113;48.762;12.302;2023-09-07T00:52:08;97667.66;;;10.22;75.48
72210;BME280;60113;48.762;12.302;2023-09-07T00:54:53;97660.94;;;10.18;74.68
72210;BME280;60113;48.762;12.302;2023-09-07T00:57:25;97654.41;;;10.11;74.70
72210;BME280;60113;48.762;12.302;2023-09-07T00:59:50;97646.94;;;10.05;74.25
72210;BME280;60113;48.762;12.302;2023-09-07T01:02:25;97660.50;;;9.98;75.62
72210;BME280;60113;48.762;12.302;2023-09-07T01:04:57;97656.38;;;9.94;74.32
72210;BME280;60113;48.762;12.302;2023-09-07T01:07:53;97652.50;;;9.87;73.39
72210;BME280;60113;48.762;12.302;2023-09-07T01:10:19;97649.34;;;9.82;69.26
72210;BME280;60113;48.762;12.302;2023-09-07T01:12:50;97659.13;;;9.80;70.33
72210;BME280;60113;48.762;12.302;2023-09-07T01:15:18;97651.34;;;9.78;72.40
72210;BME280;60113;48.762;12.302;2023-09-07T01:17:46;97654.28;;;9.73;74.48
72210;BME280;60113;48.762;12.302;2023-09-07T01:20:13;97652.69;;;9.71;76.25
72210;BME280;60113;48.762;12.302;2023-09-07T01:22:42;97645.00;;;9.68;76.02
72210;BME280;60113;48.762;12.302;2023-09-07T01:25:10;97646.06;;;9.65;75.64
72210;BME280;60113;48.762;12.302;2023-09-07T01:27:38;97645.31;;;9.63;74.68
72210;BME280;60113;48.762;12.302;2023-09-07T01:30:05;97636.06;;;9.57;75.05
72210;BME280;60113;48.762;12.302;2023-09-07T01:32:33;97643.28;;;9.54;73.83
72210;BME280;60113;48.762;12.302;2023-09-07T01:35:10;97639.28;;;9.48;73.76
72210;BME280;60113;48.762;12.302;2023-09-07T01:37:46;97636.88;;;9.45;73.46
72210;BME280;60113;48.762;12.302;2023-09-07T01:40:17;97643.16;;;9.42;74.03
72210;BME280;60113;48.762;12.302;2023-09-07T01:42:45;97645.13;;;9.38;73.37
72210;BME280;60113;48.762;12.302;2023-09-07T01:45:13;97650.38;;;9.38;72.06
72210;BME280;60113;48.762;12.302;2023-09-07T01:47:41;97647.00;;;9.36;72.67
72210;BME280;60113;48.762;12.302;2023-09-07T01:50:07;97649.97;;;9.32;74.40
72210;BME280;60113;48.762;12.302;2023-09-07T01:52:32;97653.69;;;9.28;72.62
72210;BME280;60113;48.762;12.302;2023-09-07T01:54:57;97648.66;;;9.24;74.84
72210;BME280;60113;48.762;12.302;2023-09-07T01:57:35;97640.16;;;9.21;75.99
72210;BME280;60113;48.762;12.302;2023-09-07T02:00:03;97635.94;;;9.18;75.96
72210;BME280;60113;48.762;12.302;2023-09-07T02:02:33;97638.75;;;9.15;75.63
72210;BME280;60113;48.762;12.302;2023-09-07T02:05:01;97642.53;;;9.11;74.74
72210;BME280;60113;48.762;12.302;2023-09-07T02:07:26;97648.06;;;9.06;74.56
72210;BME280;60113;48.762;12.302;2023-09-07T02:09:55;97642.44;;;8.98;74.79
72210;BME280;60113;48.762;12.302;2023-09-07T02:12:20;97640.97;;;8.94;74.95
72210;BME280;60113;48.762;12.302;2023-09-07T02:15:02;97642.00;;;8.91;75.68
72210;BME280;60113;48.762;12.302;2023-09-07T02:17:30;97635.81;;;8.92;84.33
72210;BME280;60113;48.762;12.302;2023-09-07T02:19:57;97641.44;;;8.86;78.68
72210;BME280;60113;48.762;12.302;2023-09-07T02:22:25;97643.31;;;8.84;76.08
72210;BME280;60113;48.762;12.302;2023-09-07T02:24:50;97648.66;;;8.82;76.13
72210;BME280;60113;48.762;12.302;2023-09-07T02:27:16;97646.13;;;8.81;75.26
72210;BME280;60113;48.762;12.302;2023-09-07T02:29:47;97651.66;;;8.76;74.85
72210;BME280;60113;48.762;12.302;2023-09-07T02:32:12;97652.78;;;8.72;73.89
72210;BME280;60113;48.762;12.302;2023-09-07T02:34:37;97651.22;;;8.69;73.74
72210;BME280;60113;48.762;12.302;2023-09-07T02:37:06;97642.69;;;8.66;75.29
72210;BME280;60113;48.762;12.302;2023-09-07T02:39:40;97643.72;;;8.63;73.03
72210;BME280;60113;48.762;12.302;2023-09-07T02:42:14;97645.59;;;8.61;74.30
72210;BME280;60113;48.762;12.302;2023-09-07T02:44:39;97644.97;;;8.57;76.93
72210;BME280;60113;48.762;12.302;2023-09-07T02:47:08;97646.03;;;8.53;75.04
72210;BME280;60113;48.762;12.302;2023-09-07T02:49:45;97646.50;;;8.45;75.43
72210;BME280;60113;48.762;12.302;2023-09-07T02:52:11;97645.03;;;8.41;76.15
72210;BME280;60113;48.762;12.302;2023-09-07T02:54:42;97650.63;;;8.35;75.25
72210;BME280;60113;48.762;12.302;2023-09-07T02:57:22;97646.81;;;8.26;75.11
72210;BME280;60113;48.762;12.302;2023-09-07T02:59:52;97646.31;;;8.19;73.97
72210;BME280;60113;48.762;12.302;2023-09-07T03:02:32;97648.44;;;8.12;76.78
72210;BME280;60113;48.762;12.302;2023-09-07T03:05:01;97644.25;;;8.10;77.27
72210;BME280;60113;48.762;12.302;2023-09-07T03:07:33;97642.66;;;8.07;78.65
72210;BME280;60113;48.762;12.302;2023-09-07T03:10:01;97643.75;;;8.03;79.08
72210;BME280;60113;48.762;12.302;2023-09-07T03:12:30;97647.41;;;8.00;76.82
72210;BME280;60113;48.762;12.302;2023-09-07T03:14:55;97644.25;;;7.95;76.28
72210;BME280;60113;48.762;12.302;2023-09-07T03:17:29;97651.34;;;7.93;75.55
72210;BME280;60113;48.762;12.302;2023-09-07T03:20:01;97654.88;;;7.92;75.00
72210;BME280;60113;48.762;12.302;2023-09-07T03:22:38;97661.88;;;7.92;74.00
72210;BME280;60113;48.762;12.302;2023-09-07T03:25:08;97660.94;;;7.93;78.51
72210;BME280;60113;48.762;12.302;2023-09-07T03:27:39;97660.94;;;7.93;83.79
72210;BME280;60113;48.762;12.302;2023-09-07T03:30:17;97646.00;;;7.95;82.28
72210;BME280;60113;48.762;12.302;2023-09-07T03:32:42;97647.59;;;7.97;80.25
72210;BME280;60113;48.762;12.302;2023-09-07T03:35:07;97652.66;;;8.00;76.28
72210;BME280;60113;48.762;12.302;2023-09-07T03:37:37;97648.34;;;7.99;76.63
72210;BME280;60113;48.762;12.302;2023-09-07T03:40:15;97651.16;;;7.96;75.94
72210;BME280;60113;48.762;12.302;2023-09-07T03:42:52;97650.56;;;7.91;76.20
72210;BME280;60113;48.762;12.302;2023-09-07T03:45:20;97655.25;;;7.86;76.28
72210;BME280;60113;48.762;12.302;2023-09-07T03:48:00;97655.50;;;7.81;77.04
72210;BME280;60113;48.762;12.302;2023-09-07T03:50:35;97656.59;;;7.77;73.69
72210;BME280;60113;48.762;12.302;2023-09-07T03:53:16;97650.72;;;7.73;75.04
72210;BME280;60113;48.762;12.302;2023-09-07T03:55:42;97653.63;;;7.69;75.42
72210;BME280;60113;48.762;12.302;2023-09-07T03:58:09;97648.72;;;7.62;75.43
72210;BME280;60113;48.762;12.302;2023-09-07T04:00:39;97655.13;;;7.57;75.82
72210;BME280;60113;48.762;12.302;2023-09-07T04:03:08;97654.59;;;7.52;75.98
72210;BME280;60113;48.762;12.302;2023-09-07T04:05:45;97662.69;;;7.47;77.46
72210;BME280;60113;48.762;12.302;2023-09-07T04:08:16;97659.41;;;7.43;80.73
72210;BME280;60113;48.762;12.302;2023-09-07T04:10:47;97656.94;;;7.40;79.57
72210;BME280;60113;48.762;12.302;2023-09-07T04:13:25;97656.00;;;7.41;75.46
72210;BME280;60113;48.762;12.302;2023-09-07T04:15:52;97659.66;;;7.38;78.49
72210;BME280;60113;48.762;12.302;2023-09-07T04:18:20;97660.50;;;7.39;76.89
72210;BME280;60113;48.762;12.302;2023-09-07T04:20:49;97652.66;;;7.39;76.28
72210;BME280;60113;48.762;12.302;2023-09-07T04:23:15;97658.88;;;7.36;75.91
72210;BME280;60113;48.762;12.302;2023-09-07T04:25:49;97659.09;;;7.33;75.94
72210;BME280;60113;48.762;12.302;2023-09-07T04:28:14;97660.94;;;7.31;77.59
72210;BME280;60113;48.762;12.302;2023-09-07T04:30:42;97657.63;;;7.28;76.15
72210;BME280;60113;48.762;12.302;2023-09-07T04:33:07;97661.28;;;7.25;76.16
72210;BME280;60113;48.762;12.302;2023-09-07T04:35:35;97659.53;;;7.25;76.59
72210;BME280;60113;48.762;12.302;2023-09-07T04:38:01;97658.66;;;7.25;79.86
72210;BME280;60113;48.762;12.302;2023-09-07T04:40:45;97657.81;;;7.24;80.34
72210;BME280;60113;48.762;12.302;2023-09-07T04:43:19;97664.91;;;7.22;79.16
72210;BME280;60113;48.762;12.302;2023-09-07T04:45:47;97662.38;;;7.21;78.26
72210;BME280;60113;48.762;12.302;2023-09-07T04:48:13;97671.13;;;7.20;76.48
72210;BME280;60113;48.762;12.302;2023-09-07T04:50:47;97674.69;;;7.19;77.02
72210;BME280;60113;48.762;12.302;2023-09-07T04:53:12;97675.63;;;7.18;77.31
72210;BME280;60113;48.762;12.302;2023-09-07T04:55:40;97675.72;;;7.16;76.23
72210;BME280;60113;48.762;12.302;2023-09-07T04:58:09;97673.19;;;7.15;76.61
72210;BME280;60113;48.762;12.302;2023-09-07T05:00:34;97673.28;;;7.13;80.24
72210;BME280;60113;48.762;12.302;2023-09-07T05:03:02;97676.63;;;7.15;80.70
72210;BME280;60113;48.762;12.302;2023-09-07T05:05:30;97679.91;;;7.19;79.05
72210;BME280;60113;48.762;12.302;2023-09-07T05:08:14;97675.19;;;7.25;79.00
72210;BME280;60113;48.762;12.302;2023-09-07T05:10:48;97672.34;;;7.30;77.28
72210;BME280;60113;48.762;12.302;2023-09-07T05:13:13;97683.44;;;7.34;73.70
72210;BME280;60113;48.762;12.302;2023-09-07T05:15:51;97684.78;;;7.41;82.27
72210;BME280;60113;48.762;12.302;2023-09-07T05:18:20;97678.38;;;7.47;80.18
72210;BME280;60113;48.762;12.302;2023-09-07T05:20:45;97696.97;;;7.57;79.86
72210;BME280;60113;48.762;12.302;2023-09-07T05:23:12;97690.50;;;7.64;80.56
72210;BME280;60113;48.762;12.302;2023-09-07T05:25:45;97682.94;;;7.74;82.95
72210;BME280;60113;48.762;12.302;2023-09-07T05:28:14;97686.06;;;7.81;80.40
72210;BME280;60113;48.762;12.302;2023-09-07T05:30:58;97688.31;;;7.87;80.19
72210;BME280;60113;48.762;12.302;2023-09-07T05:33:23;97688.91;;;7.92;78.57
72210;BME280;60113;48.762;12.302;2023-09-07T05:35:49;97684.41;;;7.94;78.92
72210;BME280;60113;48.762;12.302;2023-09-07T05:38:14;97691.25;;;7.97;78.22
72210;BME280;60113;48.762;12.302;2023-09-07T05:40:44;97693.56;;;8.01;78.08
72210;BME280;60113;48.762;12.302;2023-09-07T05:43:10;97699.41;;;8.07;77.63
72210;BME280;60113;48.762;12.302;2023-09-07T05:45:41;97699.22;;;8.10;77.86
72210;BME280;60113;48.762;12.302;2023-09-07T05:48:09;97696.31;;;8.15;77.19
72210;BME280;60113;48.762;12.302;2023-09-07T05:50:36;97705.66;;;8.19;77.77
72210;BME280;60113;48.762;12.302;2023-09-07T05:53:20;97698.22;;;8.27;78.82
72210;BME280;60113;48.762;12.302;2023-09-07T05:56:04;97705.81;;;8.46;78.73
72210;BME280;60113;48.762;12.302;2023-09-07T05:58:41;97706.09;;;9.00;79.97
72210;BME280;60113;48.762;12.302;2023-09-07T06:01:07;97706.31;;;9.67;81.88
72210;BME280;60113;48.762;12.302;2023-09-07T06:03:38;97701.63;;;10.38;82.78
72210;BME280;60113;48.762;12.302;2023-09-07T06:06:04;97701.69;;;11.02;82.75
72210;BME280;60113;48.762;12.302;2023-09-07T06:08:30;97705.25;;;11.63;82.00
72210;BME280;60113;48.762;12.302;2023-09-07T06:11:04;97705.47;;;12.20;82.78
72210;BME280;60113;48.762;12.302;2023-09-07T06:13:30;97698.97;;;12.72;82.86
72210;BME280;60113;48.762;12.302;2023-09-07T06:16:11;97700.00;;;13.27;82.67
72210;BME280;60113;48.762;12.302;2023-09-07T06:18:51;97698.19;;;13.83;82.31
72210;BME280;60113;48.762;12.302;2023-09-07T06:21:17;97694.31;;;14.30;81.66
72210;BME280;60113;48.762;12.302;2023-09-07T06:23:42;97704.59;;;14.75;81.67
72210;BME280;60113;48.762;12.302;2023-09-07T06:26:10;97714.81;;;15.21;81.01
72210;BME280;60113;48.762;12.302;2023-09-07T06:28:36;97714.50;;;15.66;80.70
72210;BME280;60113;48.762;12.302;2023-09-07T06:31:01;97710.03;;;15.96;80.99
72210;BME280;60113;48.762;12.302;2023-09-07T06:33:41;97712.81;;;16.14;81.23
72210;BME280;60113;48.762;12.302;2023-09-07T06:36:07;97709.47;;;16.22;81.30
72210;BME280;60113;48.762;12.302;2023-09-07T06:38:38;97717.28;;;16.23;80.34
72210;BME280;60113;48.762;12.302;2023-09-07T06:41:03;97711.03;;;16.15;80.56
72210;BME280;60113;48.762;12.302;2023-09-07T06:43:32;97716.31;;;16.15;81.33
72210;BME280;60113;48.762;12.302;2023-09-07T06:46:06;97719.22;;;16.31;82.20
72210;BME280;60113;48.762;12.302;2023-09-07T06:48:32;97713.19;;;16.49;81.01
72210;BME280;60113;48.762;12.302;2023-09-07T06:51:05;97704.34;;;16.68;81.21
72210;BME280;60113;48.762;12.302;2023-09-07T06:53:46;97706.88;;;16.98;81.75
72210;BME280;60113;48.762;12.302;2023-09-07T06:56:12;97707.31;;;17.31;81.82
72210;BME280;60113;48.762;12.302;2023-09-07T06:58:37;97707.94;;;17.61;81.29
72210;BME280;60113;48.762;12.302;2023-09-07T07:01:05;97716.47;;;17.83;81.13
72210;BME280;60113;48.762;12.302;2023-09-07T07:03:31;97709.28;;;18.12;80.95
72210;BME280;60113;48.762;12.302;2023-09-07T07:05:59;97714.94;;;18.35;79.75
72210;BME280;60113;48.762;12.302;2023-09-07T07:08:24;97712.69;;;18.49;77.03
72210;BME280;60113;48.762;12.302;2023-09-07T07:11:02;97711.22;;;18.55;78.00
72210;BME280;60113;48.762;12.302;2023-09-07T07:13:27;97709.56;;;18.54;77.34
72210;BME280;60113;48.762;12.302;2023-09-07T07:15:58;97716.66;;;18.45;75.84
72210;BME280;60113;48.762;12.302;2023-09-07T07:18:24;97717.53;;;18.54;77.27
72210;BME280;60113;48.762;12.302;2023-09-07T07:21:04;97717.53;;;18.54;75.40
72210;BME280;60113;48.762;12.302;2023-09-07T07:23:41;97715.44;;;18.66;75.53
72210;BME280;60113;48.762;12.302;2023-09-07T07:26:07;97724.44;;;18.65;74.44
72210;BME280;60113;48.762;12.302;2023-09-07T07:28:46;97718.25;;;18.91;75.20
72210;BME280;60113;48.762;12.302;2023-09-07T07:31:14;97714.38;;;19.11;75.78
72210;BME280;60113;48.762;12.302;2023-09-07T07:33:39;97712.41;;;19.22;74.96
72210;BME280;60113;48.762;12.302;2023-09-07T07:36:16;97718.38;;;19.16;73.87
72210;BME280;60113;48.762;12.302;2023-09-07T07:38:45;97713.44;;;19.29;69.29
72210;BME280;60113;48.762;12.302;2023-09-07T07:41:13;97723.13;;;19.39;73.37
72210;BME280;60113;48.762;12.302;2023-09-07T07:43:39;97723.44;;;19.27;69.22
72210;BME280;60113;48.762;12.302;2023-09-07T07:46:04;97722.59;;;19.27;68.08
72210;BME280;60113;48.762;12.302;2023-09-07T07:48:38;97722.63;;;19.43;70.87
72210;BME280;60113;48.762;12.302;2023-09-07T07:51:04;97722.41;;;19.80;71.58
72210;BME280;60113;48.762;12.302;2023-09-07T07:53:42;97716.56;;;20.01;63.33
72210;BME280;60113;48.762;12.302;2023-09-07T07:56:17;97728.94;;;20.10;65.18
72210;BME280;60113;48.762;12.302;2023-09-07T07:58:52;97719.44;;;20.24;70.53
72210;BME280;60113;48.762;12.302;2023-09-07T08:01:20;97725.91;;;20.64;70.43
72210;BME280;60113;48.762;12.302;2023-09-07T08:03:46;97709.47;;;20.92;70.72
72210;BME280;60113;48.762;12.302;2023-09-07T08:06:14;97715.19;;;21.29;70.57
72210;BME280;60113;48.762;12.302;2023-09-07T08:08:40;97714.63;;;21.42;69.57
72210;BME280;60113;48.762;12.302;2023-09-07T08:11:08;97715.78;;;21.71;69.78
72210;BME280;60113;48.762;12.302;2023-09-07T08:13:37;97718.25;;;22.04;70.23
72210;BME280;60113;48.762;12.302;2023-09-07T08:16:08;97714.19;;;22.47;69.95
72210;BME280;60113;48.762;12.302;2023-09-07T08:18:45;97718.31;;;22.73;70.04
72210;BME280;60113;48.762;12.302;2023-09-07T08:21:13;97712.50;;;23.00;67.67
72210;BME280;60113;48.762;12.302;2023-09-07T08:23:39;97715.00;;;22.71;61.93
72210;BME280;60113;48.762;12.302;2023-09-07T08:26:04;97707.50;;;22.96;68.29
72210;BME280;60113;48.762;12.302;2023-09-07T08:28:39;97703.63;;;22.84;66.74
72210;BME280;60113;48.762;12.302;2023-09-07T08:31:07;97710.84;;;22.98;66.64
72210;BME280;60113;48.762;12.302;2023-09-07T08:33:35;97701.75;;;23.30;66.16
72210;BME280;60113;48.762;12.302;2023-09-07T08:36:07;97705.59;;;23.57;62.38
72210;BME280;60113;48.762;12.302;2023-09-07T08:38:45;97706.06;;;23.61;63.57
72210;BME280;60113;48.762;12.302;2023-09-07T08:41:11;97696.91;;;23.99;62.80
72210;BME280;60113;48.762;12.302;2023-09-07T08:43:46;97701.78;;;24.32;62.21
72210;BME280;60113;48.762;12.302;2023-09-07T08:46:17;97698.91;;;24.69;60.43
72210;BME280;60113;48.762;12.302;2023-09-07T08:48:55;97697.97;;;25.19;61.76
72210;BME280;60113;48.762;12.302;2023-09-07T08:51:25;97688.31;;;25.52;60.61
72210;BME280;60113;48.762;12.302;2023-09-07T08:54:07;97685.94;;;25.78;60.13
72210;BME280;60113;48.762;12.302;2023-09-07T08:56:32;97687.81;;;25.97;59.71
72210;BME280;60113;48.762;12.302;2023-09-07T08:59:13;97693.84;;;26.00;58.57
72210;BME280;60113;48.762;12.302;2023-09-07T09:01:41;97685.75;;;26.20;59.08
72210;BME280;60113;48.762;12.302;2023-09-07T09:04:10;97693.84;;;26.33;58.97
72210;BME280;60113;48.762;12.302;2023-09-07T09:06:44;97689.69;;;26.44;58.81
72210;BME280;60113;48.762;12.302;2023-09-07T09:09:10;97692.00;;;26.34;58.00
72210;BME280;60113;48.762;12.302;2023-09-07T09:11:38;97698.19;;;26.21;56.84
72210;BME280;60113;48.762;12.302;2023-09-07T09:14:22;97694.41;;;25.75;55.46
72210;BME280;60113;48.762;12.302;2023-09-07T09:16:51;97691.69;;;25.68;55.47
72210;BME280;60113;48.762;12.302;2023-09-07T09:19:17;97687.59;;;25.79;55.47
72210;BME280;60113;48.762;12.302;2023-09-07T09:21:44;97691.75;;;26.02;55.53
72210;BME280;60113;48.762;12.302;2023-09-07T09:24:13;97699.41;;;25.98;54.23
72210;BME280;60113;48.762;12.302;2023-09-07T09:26:42;97695.28;;;25.95;54.07
72210;BME280;60113;48.762;12.302;2023-09-07T09:29:09;97703.97;;;25.97;53.17
72210;BME280;60113;48.762;12.302;2023-09-07T09:31:34;97701.69;;;25.94;53.54
72210;BME280;60113;48.762;12.302;2023-09-07T09:34:09;97696.09;;;26.03;52.93
72210;BME280;60113;48.762;12.302;2023-09-07T09:36:35;97697.97;;;25.89;48.22
72210;BME280;60113;48.762;12.302;2023-09-07T09:39:21;97696.31;;;25.94;46.88
72210;BME280;60113;48.762;12.302;2023-09-07T09:41:46;97694.03;;;26.05;51.50
72210;BME280;60113;48.762;12.302;2023-09-07T09:44:12;97675.81;;;26.20;50.04
72210;BME280;60113;48.762;12.302;2023-09-07T09:46:41;97695.06;;;26.24;51.28
72210;BME280;60113;48.762;12.302;2023-09-07T09:49:08;97691.16;;;26.20;51.27
72210;BME280;60113;48.762;12.302;2023-09-07T09:51:45;97682.44;;;26.25;50.80
72210;BME280;60113;48.762;12.302;2023-09-07T09:54:16;97684.94;;;26.40;51.25
72210;BME280;60113;48.762;12.302;2023-09-07T09:56:42;97695.69;;;26.53;50.86
72210;BME280;60113;48.762;12.302;2023-09-07T09:59:12;97683.91;;;26.54;50.72
72210;BME280;60113;48.762;12.302;2023-09-07T10:01:45;97683.91;;;26.48;44.23
72210;BME280;60113;48.762;12.302;2023-09-07T10:04:23;97683.28;;;26.59;49.94
72210;BME280;60113;48.762;12.302;2023-09-07T10:06:57;97679.09;;;26.63;44.22
72210;BME280;60113;48.762;12.302;2023-09-07T10:09:23;97678.00;;;26.84;50.30
72210;BME280;60113;48.762;12.302;2023-09-07T10:11:53;97674.06;;;27.01;48.44
72210;BME280;60113;48.762;12.302;2023-09-07T10:14:21;97679.38;;;27.14;50.03
72210;BME280;60113;48.762;12.302;2023-09-07T10:16:49;97671.50;;;27.19;46.96
72210;BME280;60113;48.762;12.302;2023-09-07T10:19:22;97676.03;;;27.26;43.58
72210;BME280;60113;48.762;12.302;2023-09-07T10:21:49;97672.22;;;27.40;48.77
72210;BME280;60113;48.762;12.302;2023-09-07T10:24:33;97666.81;;;27.40;40.89
72210;BME280;60113;48.762;12.302;2023-09-07T10:27:08;97666.28;;;27.57;47.29
72210;BME280;60113;48.762;12.302;2023-09-07T10:29:46;97675.38;;;27.69;45.79
72210;BME280;60113;48.762;12.302;2023-09-07T10:32:15;97669.47;;;27.86;47.30
72210;BME280;60113;48.762;12.302;2023-09-07T10:34:42;97668.13;;;27.70;45.97
72210;BME280;60113;48.762;12.302;2023-09-07T10:37:14;97665.72;;;27.87;44.15
72210;BME280;60113;48.762;12.302;2023-09-07T10:39:44;97669.03;;;27.89;44.55
72210;BME280;60113;48.762;12.302;2023-09-07T10:42:22;97667.66;;;27.80;39.50
72210;BME280;60113;48.762;12.302;2023-09-07T10:44:55;97674.72;;;27.74;47.92
72210;BME280;60113;48.762;12.302;2023-09-07T10:47:20;97666.78;;;27.86;48.04
72210;BME280;60113;48.762;12.302;2023-09-07T10:49:57;97665.47;;;27.95;46.27
72210;BME280;60113;48.762;12.302;2023-09-07T10:52:22;97669.81;;;27.96;47.31
72210;BME280;60113;48.762;12.302;2023-09-07T10:54:57;97666.28;;;28.21;45.77
72210;BME280;60113;48.762;12.302;2023-09-07T10:57:41;97664.41;;;28.48;45.18
72210;BME280;60113;48.762;12.302;2023-09-07T11:00:11;97654.28;;;28.62;47.73
72210;BME280;60113;48.762;12.302;2023-09-07T11:02:39;97654.75;;;28.77;47.28
72210;BME280;60113;48.762;12.302;2023-09-07T11:05:06;97660.63;;;28.49;46.83
72210;BME280;60113;48.762;12.302;2023-09-07T11:07:34;97652.91;;;28.52;47.03
72210;BME280;60113;48.762;12.302;2023-09-07T11:10:23;97652.25;;;28.57;47.96
72210;BME280;60113;48.762;12.302;2023-09-07T11:12:57;97651.19;;;28.58;46.40
72210;BME280;60113;48.762;12.302;2023-09-07T11:15:37;97642.78;;;28.66;45.02
72210;BME280;60113;48.762;12.302;2023-09-07T11:18:20;97650.53;;;28.81;46.77
72210;BME280;60113;48.762;12.302;2023-09-07T11:20:53;97642.88;;;28.97;46.58
72210;BME280;60113;48.762;12.302;2023-09-07T11:23:37;97641.47;;;28.94;45.44
72210;BME280;60113;48.762;12.302;2023-09-07T11:26:05;97649.72;;;29.00;46.28
72210;BME280;60113;48.762;12.302;2023-09-07T11:28:34;97641.06;;;29.10;45.73
72210;BME280;60113;48.762;12.302;2023-09-07T11:31:02;97630.44;;;29.27;46.16
72210;BME280;60113;48.762;12.302;2023-09-07T11:33:33;97624.69;;;29.35;44.14
72210;BME280;60113;48.762;12.302;2023-09-07T11:35:59;97633.09;;;29.45;45.81
72210;BME280;60113;48.762;12.302;2023-09-07T11:38:36;97629.06;;;29.36;37.47
72210;BME280;60113;48.762;12.302;2023-09-07T11:41:02;97623.13;;;28.59;35.84
72210;BME280;60113;48.762;12.302;2023-09-07T11:43:31;97618.81;;;29.07;44.20
72210;BME280;60113;48.762;12.302;2023-09-07T11:46:07;97624.34;;;29.01;44.87
72210;BME280;60113;48.762;12.302;2023-09-07T11:48:39;97615.31;;;29.07;45.11
72210;BME280;60113;48.762;12.302;2023-09-07T11:51:04;97614.69;;;29.36;44.55
72210;BME280;60113;48.762;12.302;2023-09-07T11:53:41;97615.97;;;29.64;44.23
72210;BME280;60113;48.762;12.302;2023-09-07T11:56:09;97609.88;;;29.80;44.77
72210;BME280;60113;48.762;12.302;2023-09-07T11:58:46;97614.19;;;29.57;43.03
72210;BME280;60113;48.762;12.302;2023-09-07T12:01:13;97614.41;;;29.56;43.52
72210;BME280;60113;48.762;12.302;2023-09-07T12:03:39;97615.56;;;29.48;42.79
72210;BME280;60113;48.762;12.302;2023-09-07T12:06:17;97615.38;;;29.31;44.15
72210;BME280;60113;48.762;12.302;2023-09-07T12:08:58;97616.69;;;29.59;37.99
72210;BME280;60113;48.762;12.302;2023-09-07T12:11:23;97610.00;;;29.74;44.63
72210;BME280;60113;48.762;12.302;2023-09-07T12:13:57;97607.16;;;29.80;43.04
72210;BME280;60113;48.762;12.302;2023-09-07T12:16:26;97604.84;;;29.84;43.35
72210;BME280;60113;48.762;12.302;2023-09-07T12:18:51;97611.41;;;29.88;43.20
72210;BME280;60113;48.762;12.302;2023-09-07T12:21:20;97602.47;;;29.76;42.38
72210;BME280;60113;48.762;12.302;2023-09-07T12:23:45;97609.41;;;29.83;43.54
72210;BME280;60113;48.762;12.302;2023-09-07T12:26:12;97599.41;;;29.84;43.06
72210;BME280;60113;48.762;12.302;2023-09-07T12:28:40;97609.66;;;29.82;43.07
72210;BME280;60113;48.762;12.302;2023-09-07T12:31:06;97600.13;;;29.91;43.21
72210;BME280;60113;48.762;12.302;2023-09-07T12:33:32;97596.59;;;30.03;42.75
72210;BME280;60113;48.762;12.302;2023-09-07T12:36:00;97596.94;;;30.06;43.02
72210;BME280;60113;48.762;12.302;2023-09-07T12:38:29;97593.31;;;30.01;42.73
72210;BME280;60113;48.762;12.302;2023-09-07T12:40:54;97594.94;;;30.02;42.98
72210;BME280;60113;48.762;12.302;2023-09-07T12:43:20;97592.00;;;30.03;43.18
72210;BME280;60113;48.762;12.302;2023-09-07T12:45:48;97586.94;;;30.07;43.00
72210;BME280;60113;48.762;12.302;2023-09-07T12:48:13;97579.06;;;30.05;43.10
72210;BME280;60113;48.762;12.302;2023-09-07T12:50:39;97580.69;;;30.06;42.44
72210;BME280;60113;48.762;12.302;2023-09-07T12:53:08;97581.53;;;30.07;42.97
72210;BME280;60113;48.762;12.302;2023-09-07T12:55:33;97579.28;;;30.04;42.44
72210;BME280;60113;48.762;12.302;2023-09-07T12:57:59;97573.53;;;30.12;42.17
72210;BME280;60113;48.762;12.302;2023-09-07T13:00:28;97566.34;;;30.06;42.17
72210;BME280;60113;48.762;12.302;2023-09-07T13:02:57;97564.94;;;30.15;42.89
72210;BME280;60113;48.762;12.302;2023-09-07T13:05:25;97565.78;;;30.28;43.22
72210;BME280;60113;48.762;12.302;2023-09-07T13:07:53;97567.28;;;30.36;42.63
72210;BME280;60113;48.762;12.302;2023-09-07T13:10:22;97557.63;;;30.40;38.91